Time;durP1;ratioP1;P1;durP2;ratioP2;P2;SDS_P1;SDS_P2;PMS_P1;PMS_P2;Temp;Humidity;BMP_temperature;BMP_pressure;BME280_temperature;BME280_humidity;BME280_pressure;Samples;Min_cycle;Max_cycle;Signal;HPM_P1;HPM_P2
2023/06/04 00:00:08;;;;;;;6.03;5.43;;;;;;;16.19;90.17;95063.75;5079574;28;20214;-71
2023/06/04 00:02:36;;;;;;;5.75;5.22;;;;;;;16.19;90.01;95060.97;5079614;28;20223;-71
2023/06/04 00:05:05;;;;;;;5.85;5.45;;;;;;;16.18;89.12;95066.94;5079731;28;20185;-71
2023/06/04 00:07:34;;;;;;;5.65;5.15;;;;;;;16.15;88.80;95059.34;5096899;28;20283;-71
2023/06/04 00:10:05;;;;;;;6.38;5.32;;;;;;;16.13;89.47;95065.31;5097403;28;20188;-71
2023/06/04 00:12:33;;;;;;;5.35;4.95;;;;;;;16.10;89.03;95055.75;5097394;28;20185;-71
2023/06/04 00:15:00;;;;;;;5.72;5.13;;;;;;;16.08;89.24;95051.75;5097194;28;20216;-71
2023/06/04 00:17:27;;;;;;;5.72;5.22;;;;;;;16.11;89.63;95053.78;5079457;28;20196;-71
2023/06/04 00:19:55;;;;;;;5.70;5.20;;;;;;;16.11;89.30;95057.34;5096855;28;20208;-71
2023/06/04 00:22:26;;;;;;;6.03;5.43;;;;;;;16.09;89.14;95056.97;5079260;28;20201;-71
2023/06/04 00:24:54;;;;;;;5.75;5.35;;;;;;;16.08;89.15;95052.56;5079354;28;20249;-71
2023/06/04 00:27:21;;;;;;;5.40;4.88;;;;;;;16.10;89.72;95054.97;5079357;28;20199;-71
2023/06/04 00:29:48;;;;;;;5.88;5.30;;;;;;;16.12;89.33;95060.94;5097079;28;20196;-71
2023/06/04 00:32:17;;;;;;;5.70;5.20;;;;;;;16.12;89.81;95052.56;5096654;28;20266;-71
2023/06/04 00:34:52;;;;;;;5.30;4.60;;;;;;;16.10;89.15;95041.06;5079151;28;20662;-71
2023/06/04 00:37:21;;;;;;;5.47;4.90;;;;;;;16.12;89.12;95049.78;5096840;28;20207;-71
2023/06/04 00:39:49;;;;;;;4.65;3.80;;;;;;;16.09;88.70;95048.59;5097290;28;20192;-71
2023/06/04 00:42:19;;;;;;;4.50;3.92;;;;;;;16.09;87.89;95051.41;5078712;28;20200;-71
2023/06/04 00:44:47;;;;;;;4.45;4.03;;;;;;;16.10;87.60;95052.19;5079039;28;20188;-71
2023/06/04 00:47:16;;;;;;;4.07;3.78;;;;;;;16.10;88.15;95050.19;5096701;28;20246;-71
2023/06/04 00:49:44;;;;;;;3.58;3.28;;;;;;;16.07;86.54;95052.97;5096671;28;20199;-71
2023/06/04 00:52:15;;;;;;;4.30;3.90;;;;;;;16.08;86.62;95051.75;5078797;28;20201;-71
2023/06/04 00:54:43;;;;;;;3.50;3.20;;;;;;;16.07;85.91;95050.19;5078452;28;20212;-71
2023/06/04 00:57:11;;;;;;;4.80;3.08;;;;;;;16.06;84.71;95038.25;5078785;28;20204;-71
2023/06/04 00:59:41;;;;;;;3.13;2.83;;;;;;;16.05;84.41;95042.22;5078469;28;20636;-71
2023/06/04 01:02:13;;;;;;;3.25;2.90;;;;;;;16.04;83.96;95042.59;5096462;28;20189;-71
2023/06/04 01:04:48;;;;;;;4.00;2.80;;;;;;;16.04;84.21;95040.63;5096150;28;20177;-72
2023/06/04 01:07:17;;;;;;;4.65;3.28;;;;;;;16.05;83.84;95042.22;5096168;28;20244;-72
2023/06/04 01:09:45;;;;;;;3.10;2.90;;;;;;;16.03;83.68;95035.44;5078753;28;20195;-71
2023/06/04 01:12:13;;;;;;;3.00;2.80;;;;;;;15.99;83.33;95040.19;5095991;28;20211;-71
2023/06/04 01:14:43;;;;;;;2.67;2.47;;;;;;;15.97;82.86;95050.91;5078469;28;20208;-71
2023/06/04 01:17:17;;;;;;;3.70;2.70;;;;;;;15.96;82.60;95047.31;5078275;28;20250;-72
2023/06/04 01:20:25;;;;;;;3.05;2.80;;;;;;;15.94;83.05;95046.13;5096144;28;20195;-71
2023/06/04 01:23:16;;;;;;;2.83;2.63;;;;;;;15.91;83.38;95047.72;5096093;28;20188;-71
2023/06/04 01:25:49;;;;;;;3.10;2.78;;;;;;;15.91;83.75;95046.91;5077930;28;20613;-71
2023/06/04 01:28:17;;;;;;;3.22;2.83;;;;;;;15.89;83.64;95042.50;5077911;28;20200;-72
2023/06/04 01:30:47;;;;;;;3.35;3.05;;;;;;;15.92;84.15;95042.94;5095980;28;20275;-71
2023/06/04 01:33:17;;;;;;;3.50;3.20;;;;;;;15.92;84.46;95042.94;5095225;28;20223;-71
2023/06/04 01:35:45;;;;;;;4.15;3.10;;;;;;;15.91;84.62;95049.69;5078057;28;20215;-71
2023/06/04 01:38:13;;;;;;;3.28;2.95;;;;;;;15.92;84.74;95051.28;5095873;28;20211;-71
2023/06/04 01:40:41;;;;;;;3.20;3.00;;;;;;;15.87;84.61;95052.44;5095906;28;20615;-72
2023/06/04 01:43:10;;;;;;;3.22;2.92;;;;;;;15.88;84.96;95052.06;5077960;28;20232;-71
2023/06/04 01:45:37;;;;;;;3.00;2.80;;;;;;;15.88;84.64;95056.81;5077728;28;20284;-72
2023/06/04 01:48:07;;;;;;;2.97;2.78;;;;;;;15.88;84.72;95054.03;5078175;28;20192;-71
2023/06/04 01:50:34;;;;;;;3.35;3.05;;;;;;;15.85;84.96;95052.81;5095558;28;20207;-71
2023/06/04 01:53:01;;;;;;;2.90;2.70;;;;;;;15.84;84.94;95056.00;5095536;28;20185;-71
2023/06/04 01:55:33;;;;;;;2.90;2.67;;;;;;;15.87;84.65;95064.38;5095507;28;20218;-71
2023/06/04 01:58:01;;;;;;;2.97;2.72;;;;;;;15.84;85.00;95058.78;5095229;28;20505;-71
2023/06/04 02:00:29;;;;;;;3.13;2.92;;;;;;;15.87;84.84;95066.34;5077827;28;20193;-71
2023/06/04 02:02:56;;;;;;;3.00;2.80;;;;;;;15.85;84.97;95063.16;5077444;28;20209;-71
2023/06/04 02:05:28;;;;;;;3.28;2.60;;;;;;;15.86;84.99;95065.53;5095451;28;20200;-71
2023/06/04 02:07:57;;;;;;;3.35;3.05;;;;;;;15.87;85.50;95067.16;5095619;28;20263;-71
2023/06/04 02:10:25;;;;;;;3.63;3.03;;;;;;;15.86;84.93;95068.31;5095504;28;20193;-71
2023/06/04 02:12:56;;;;;;;3.35;3.08;;;;;;;15.85;85.29;95068.72;5095414;28;20284;-71
2023/06/04 02:15:25;;;;;;;2.70;2.50;;;;;;;15.84;84.46;95078.25;5077102;28;20222;-71
2023/06/04 02:17:58;;;;;;;2.95;2.75;;;;;;;15.85;84.65;95085.41;5077684;28;20215;-71
2023/06/04 02:20:31;;;;;;;2.70;2.53;;;;;;;15.86;84.39;95082.22;5077379;28;20212;-71
2023/06/04 02:23:00;;;;;;;3.15;2.88;;;;;;;15.86;84.95;95078.66;5094979;28;20195;-70
2023/06/04 02:25:28;;;;;;;2.80;2.60;;;;;;;15.85;84.43;95086.19;5095252;28;20192;-71
2023/06/04 02:27:57;;;;;;;3.30;2.80;;;;;;;15.85;84.03;95086.19;5077117;28;20202;-71
2023/06/04 02:30:26;;;;;;;3.03;2.38;;;;;;;15.87;83.89;95099.72;5077446;28;20208;-71
2023/06/04 02:32:54;;;;;;;2.80;2.60;;;;;;;15.87;83.94;95094.16;5077571;28;20204;-71
2023/06/04 02:35:23;;;;;;;2.95;2.60;;;;;;;15.85;83.62;95100.09;5077296;28;20216;-71
2023/06/04 02:37:51;;;;;;;2.65;2.42;;;;;;;15.81;83.54;95098.50;5077500;28;20215;-71
2023/06/04 02:40:20;;;;;;;2.55;2.35;;;;;;;15.79;83.27;95103.63;5094825;28;20593;-71
2023/06/04 02:42:48;;;;;;;2.70;2.50;;;;;;;15.80;83.66;95105.25;5077453;28;20200;-71
2023/06/04 02:45:16;;;;;;;2.55;2.38;;;;;;;15.78;83.64;95105.59;5080888;28;20201;-71
2023/06/04 02:47:44;;;;;;;2.60;2.40;;;;;;;15.76;84.25;95109.94;5098782;28;20191;-70
2023/06/04 02:50:12;;;;;;;2.67;2.35;;;;;;;15.76;84.67;95109.94;5081312;28;20293;-72
2023/06/04 02:52:41;;;;;;;2.90;2.65;;;;;;;15.73;84.89;95108.75;5098755;28;20203;-71
2023/06/04 02:55:11;;;;;;;2.90;2.60;;;;;;;15.73;84.87;95111.53;5080949;28;20224;-71
2023/06/04 02:57:41;;;;;;;2.83;2.63;;;;;;;15.73;84.90;95119.88;5098779;28;20200;-71
2023/06/04 03:00:12;;;;;;;2.38;2.28;;;;;;;15.73;84.79;95114.31;5098297;28;20231;-71
2023/06/04 03:02:41;;;;;;;2.67;2.47;;;;;;;15.72;84.58;95118.25;5098829;28;20184;-71
2023/06/04 03:05:12;;;;;;;2.65;2.53;;;;;;;15.75;85.17;95116.69;5080832;28;20188;-71
2023/06/04 03:07:44;;;;;;;2.80;2.60;;;;;;;15.75;85.46;95119.47;5077847;28;20248;-71
2023/06/04 03:10:15;;;;;;;4.22;2.60;;;;;;;15.76;85.61;95116.34;5078216;28;20185;-71
2023/06/04 03:12:43;;;;;;;3.47;2.67;;;;;;;15.74;85.17;95118.69;5077934;28;20625;-71
2023/06/04 03:15:10;;;;;;;4.50;2.75;;;;;;;15.73;85.63;95111.53;5077972;28;20211;-71
2023/06/04 03:17:38;;;;;;;2.78;2.58;;;;;;;15.75;85.83;95128.63;5078358;28;20189;-71
2023/06/04 03:20:08;;;;;;;2.60;2.40;;;;;;;15.73;85.89;95117.09;5077288;28;20226;-71
2023/06/04 03:22:38;;;;;;;4.43;3.17;;;;;;;15.75;85.28;95119.47;5077368;28;20193;-71
2023/06/04 03:25:07;;;;;;;3.40;3.10;;;;;;;15.76;85.73;95121.06;5077674;28;20196;-71
2023/06/04 03:27:37;;;;;;;3.00;2.80;;;;;;;15.76;85.40;95126.63;5060352;28;20205;-71
2023/06/04 03:30:09;;;;;;;4.18;3.88;;;;;;;15.76;85.50;95123.84;5077662;28;20201;-71
2023/06/04 03:32:37;;;;;;;5.50;5.00;;;;;;;15.77;85.41;95126.25;5076739;28;20189;-72
2023/06/04 03:35:06;;;;;;;7.50;5.97;;;;;;;15.77;85.19;95129.03;5076790;28;20209;-71
2023/06/04 03:37:33;;;;;;;6.68;6.13;;;;;;;15.77;85.78;95129.03;5077577;28;20207;-71
2023/06/04 03:40:05;;;;;;;5.93;5.50;;;;;;;15.78;85.48;95133.41;5077010;28;20205;-71
2023/06/04 03:42:35;;;;;;;4.95;4.55;;;;;;;15.77;85.44;95128.25;5076769;28;20193;-71
2023/06/04 03:45:04;;;;;;;4.35;3.95;;;;;;;15.76;85.48;95134.97;5077653;28;20185;-71
2023/06/04 03:47:33;;;;;;;4.05;3.65;;;;;;;15.75;85.75;95133.38;5077185;28;20193;-71
2023/06/04 03:50:01;;;;;;;3.92;3.63;;;;;;;15.75;86.15;95136.97;5077688;28;20196;-71
2023/06/04 03:52:29;;;;;;;3.20;3.00;;;;;;;15.74;85.80;95148.47;5077772;28;20196;-71
2023/06/04 03:54:56;;;;;;;3.58;3.28;;;;;;;15.72;86.47;95140.50;5075988;28;20246;-71
2023/06/04 03:57:23;;;;;;;3.38;2.72;;;;;;;15.74;86.30;95140.13;5076473;28;20205;-71
2023/06/04 03:59:51;;;;;;;3.58;3.25;;;;;;;15.73;86.65;95149.69;5076522;28;20201;-71
2023/06/04 04:02:20;;;;;;;3.20;3.00;;;;;;;15.71;87.11;95143.69;5077331;28;20264;-71
2023/06/04 04:04:48;;;;;;;2.97;2.78;;;;;;;15.68;87.15;95148.03;5076456;28;20205;-71
2023/06/04 04:07:16;;;;;;;3.03;2.83;;;;;;;15.70;87.69;95147.66;5076216;28;20252;-71
2023/06/04 04:09:44;;;;;;;3.25;2.95;;;;;;;15.71;87.76;95144.47;5076587;28;20213;-71
2023/06/04 04:12:12;;;;;;;3.00;2.80;;;;;;;15.70;87.95;95151.22;5076883;28;20189;-71
2023/06/04 04:14:40;;;;;;;3.15;2.95;;;;;;;15.68;87.92;95148.03;5076301;28;20201;-71
2023/06/04 04:17:08;;;;;;;3.20;3.00;;;;;;;15.70;87.82;95150.44;5076688;28;20262;-71
2023/06/04 04:19:37;;;;;;;3.45;3.03;;;;;;;15.72;87.36;95153.63;5077297;28;20232;-71
2023/06/04 04:22:05;;;;;;;5.70;4.10;;;;;;;15.72;87.56;95162.75;5077075;28;20189;-71
2023/06/04 04:24:35;;;;;;;3.67;3.38;;;;;;;15.73;87.43;95155.22;5075999;28;20189;-72
2023/06/04 04:27:03;;;;;;;4.40;3.33;;;;;;;15.72;87.79;95151.63;5075903;28;20201;-71
2023/06/04 04:29:32;;;;;;;3.75;3.45;;;;;;;15.74;87.40;95156.81;5075993;28;20597;-71
2023/06/04 04:32:02;;;;;;;3.70;3.50;;;;;;;15.74;87.63;95159.59;5076480;28;20194;-71
2023/06/04 04:34:32;;;;;;;3.83;3.45;;;;;;;15.77;87.61;95162.41;5076595;28;20272;-71
2023/06/04 04:37:02;;;;;;;4.40;4.00;;;;;;;15.78;87.52;95161.22;5076615;28;20251;-72
2023/06/04 04:39:31;;;;;;;4.93;3.45;;;;;;;15.80;88.04;95164.44;5076474;28;20587;-70
2023/06/04 04:41:59;;;;;;;4.15;3.58;;;;;;;15.80;87.49;95167.22;5076332;28;20185;-71
2023/06/04 04:44:29;;;;;;;5.38;4.90;;;;;;;15.82;87.80;95164.81;5075947;28;20205;-71
2023/06/04 04:46:56;;;;;;;4.60;4.20;;;;;;;15.81;87.47;95165.22;5076479;28;20189;-71
2023/06/04 04:49:24;;;;;;;5.38;4.43;;;;;;;15.82;87.32;95164.03;5076364;28;20540;-71
2023/06/04 04:51:52;;;;;;;5.10;4.57;;;;;;;15.86;87.90;95160.09;5076362;28;20196;-71
2023/06/04 04:54:22;;;;;;;4.93;4.32;;;;;;;15.91;87.93;95169.28;5075474;28;20189;-71
2023/06/04 04:56:50;;;;;;;5.20;4.68;;;;;;;15.92;87.82;95168.09;5076217;28;20217;-70
2023/06/04 04:59:18;;;;;;;4.90;4.38;;;;;;;15.93;87.53;95166.91;5075917;28;20327;-72
2023/06/04 05:01:44;;;;;;;4.60;4.20;;;;;;;15.96;87.45;95166.94;5075235;28;20200;-71
2023/06/04 05:04:13;;;;;;;5.05;4.57;;;;;;;15.98;87.22;95169.34;5075894;28;20185;-70
2023/06/04 05:06:40;;;;;;;5.90;4.30;;;;;;;15.96;86.18;95171.72;5074382;28;20240;-70
2023/06/04 05:09:09;;;;;;;4.60;4.20;;;;;;;16.00;86.37;95169.75;5074806;28;20192;-70
2023/06/04 05:11:38;;;;;;;4.63;4.00;;;;;;;16.01;85.69;95165.78;5075240;28;20262;-70
2023/06/04 05:14:10;;;;;;;8.15;4.28;;;;;;;16.03;85.75;95169.78;5075678;28;20192;-71
2023/06/04 05:16:40;;;;;;;4.65;4.10;;;;;;;16.05;85.54;95175.75;5075880;28;20252;-71
2023/06/04 05:19:10;;;;;;;4.80;4.40;;;;;;;16.06;85.09;95176.56;5075555;28;20207;-71
2023/06/04 05:21:39;;;;;;;5.22;4.70;;;;;;;16.08;85.33;95171.41;5076007;28;20182;-71
2023/06/04 05:24:09;;;;;;;4.70;4.40;;;;;;;16.09;84.79;95175.78;5076140;28;20207;-71
2023/06/04 05:26:39;;;;;;;4.68;4.28;;;;;;;16.08;84.23;95177.75;5075661;28;20196;-70
2023/06/04 05:29:10;;;;;;;4.95;4.55;;;;;;;16.08;83.80;95179.75;5074366;28;20617;-70
2023/06/04 05:31:39;;;;;;;4.80;4.40;;;;;;;16.10;83.69;95174.59;5075706;28;20189;-70
2023/06/04 05:34:09;;;;;;;4.90;4.50;;;;;;;16.13;84.04;95173.84;5075576;28;20279;-72
2023/06/04 05:36:39;;;;;;;5.43;4.63;;;;;;;16.15;83.63;95179.78;5074573;28;20217;-71
2023/06/04 05:39:10;;;;;;;5.32;4.82;;;;;;;16.17;84.08;95177.44;5074566;28;20608;-71
2023/06/04 05:41:40;;;;;;;4.88;4.45;;;;;;;16.17;83.35;95185.00;5075167;28;20197;-71
2023/06/04 05:44:08;;;;;;;5.30;4.80;;;;;;;16.18;83.68;95186.59;5075441;28;20221;-71
2023/06/04 05:46:36;;;;;;;5.13;4.72;;;;;;;16.22;83.54;95195.75;5074180;28;20621;-71
2023/06/04 05:49:03;;;;;;;5.18;4.68;;;;;;;16.23;82.99;95191.78;5074623;28;20271;-71
2023/06/04 05:51:31;;;;;;;5.07;4.63;;;;;;;16.26;83.66;95196.56;5075351;28;20197;-71
2023/06/04 05:53:59;;;;;;;5.50;4.78;;;;;;;16.31;83.45;95193.44;5075344;28;20201;-71
2023/06/04 05:56:28;;;;;;;5.70;5.20;;;;;;;16.31;83.96;95193.44;5075227;28;20212;-71
2023/06/04 05:58:56;;;;;;;5.28;4.78;;;;;;;16.31;82.67;95204.56;5075283;28;20189;-71
2023/06/04 06:01:24;;;;;;;5.47;5.07;;;;;;;16.34;82.93;95201.03;5074390;28;20205;-71
2023/06/04 06:03:51;;;;;;;5.70;5.20;;;;;;;16.34;82.56;95201.03;5075260;28;20196;-71
2023/06/04 06:06:20;;;;;;;6.43;5.32;;;;;;;16.40;82.80;95204.22;5075790;28;20597;-71
2023/06/04 06:08:49;;;;;;;8.60;5.55;;;;;;;16.44;82.59;95205.06;5095364;28;20196;-70
2023/06/04 06:11:17;;;;;;;6.00;5.40;;;;;;;16.44;82.29;95213.41;5077558;28;20215;-71
2023/06/04 06:13:45;;;;;;;5.78;5.00;;;;;;;16.46;81.92;95213.81;5095354;28;20184;-72
2023/06/04 06:16:16;;;;;;;5.72;5.05;;;;;;;16.47;81.89;95212.63;5095276;28;20196;-71
2023/06/04 06:18:45;;;;;;;6.82;5.28;;;;;;;16.52;81.47;95215.03;5095069;28;20235;-70
2023/06/04 06:21:13;;;;;;;5.68;5.18;;;;;;;16.53;81.15;95211.09;5077465;28;20189;-71
2023/06/04 06:23:41;;;;;;;7.60;6.25;;;;;;;16.55;80.53;95215.06;5095316;28;20192;-71
2023/06/04 06:26:08;;;;;;;6.35;5.75;;;;;;;16.58;80.41;95210.72;5095214;28;20188;-71
2023/06/04 06:28:37;;;;;;;6.95;6.25;;;;;;;16.61;79.99;95209.94;5077189;28;20196;-71
2023/06/04 06:31:05;;;;;;;6.45;5.75;;;;;;;16.66;80.72;95214.34;5095143;28;20188;-71
2023/06/04 06:33:34;;;;;;;6.78;5.50;;;;;;;16.69;80.61;95208.78;5094626;28;20208;-71
2023/06/04 06:36:06;;;;;;;6.63;6.03;;;;;;;16.73;80.07;95220.75;5094940;28;20636;-71
2023/06/04 06:38:34;;;;;;;7.38;6.05;;;;;;;16.76;80.04;95216.41;5077419;28;20218;-71
2023/06/04 06:41:02;;;;;;;7.68;6.20;;;;;;;16.77;79.88;95216.03;5077340;28;20624;-70
2023/06/04 06:43:31;;;;;;;7.03;6.32;;;;;;;16.77;79.07;95227.16;5094853;28;20177;-70
2023/06/04 06:45:59;;;;;;;7.25;6.30;;;;;;;16.78;79.04;95223.22;5077255;28;20651;-71
2023/06/04 06:48:26;;;;;;;6.72;6.00;;;;;;;16.84;78.82;95226.41;5077477;28;20185;-71
2023/06/04 06:50:54;;;;;;;6.65;5.75;;;;;;;16.89;78.51;95228.03;5077071;28;20261;-71
2023/06/04 06:53:22;;;;;;;6.32;5.60;;;;;;;16.89;78.17;95225.25;5077169;28;20200;-71
2023/06/04 06:55:50;;;;;;;7.45;5.25;;;;;;;16.91;78.06;95226.44;5095014;28;20609;-71
2023/06/04 06:58:18;;;;;;;6.43;5.32;;;;;;;16.97;79.05;95229.69;5077184;28;20196;-71
2023/06/04 07:00:46;;;;;;;6.15;5.65;;;;;;;16.95;77.49;95227.25;5077319;28;20203;-71
2023/06/04 07:03:15;;;;;;;7.68;5.50;;;;;;;16.89;77.45;95228.03;5094684;28;20177;-71
2023/06/04 07:05:43;;;;;;;6.75;6.05;;;;;;;16.90;77.78;95226.84;5077185;28;20196;-71
2023/06/04 07:08:12;;;;;;;6.70;6.10;;;;;;;16.95;77.71;95229.25;5094331;28;20233;-71
2023/06/04 07:10:39;;;;;;;6.70;6.10;;;;;;;16.98;78.17;95242.41;5076891;28;20596;-71
2023/06/04 07:13:07;;;;;;;6.40;5.80;;;;;;;16.95;77.31;95243.97;5076749;28;20196;-71
2023/06/04 07:15:35;;;;;;;5.72;5.22;;;;;;;16.95;76.69;95248.75;5094561;28;20202;-71
2023/06/04 07:18:03;;;;;;;6.03;5.53;;;;;;;16.96;76.86;95242.00;5094726;28;20227;-71
2023/06/04 07:20:31;;;;;;;6.55;5.95;;;;;;;16.98;76.77;95253.56;5094465;28;20249;-71
2023/06/04 07:22:58;;;;;;;6.32;5.75;;;;;;;16.97;76.67;95252.75;5094283;28;20185;-71
2023/06/04 07:25:28;;;;;;;7.05;5.93;;;;;;;17.01;77.14;95250.00;5077040;28;20200;-71
2023/06/04 07:27:57;;;;;;;7.03;6.13;;;;;;;17.06;77.36;95244.84;5094806;28;20257;-71
2023/06/04 07:30:25;;;;;;;6.93;6.25;;;;;;;17.10;77.20;95250.41;5095383;28;20184;-71
2023/06/04 07:32:52;;;;;;;7.05;5.82;;;;;;;17.14;78.03;95256.00;5080478;28;20192;-72
2023/06/04 07:35:20;;;;;;;6.55;5.95;;;;;;;17.17;77.05;95258.03;5098120;28;20184;-71
2023/06/04 07:37:48;;;;;;;6.93;6.32;;;;;;;17.22;78.35;95254.88;5080257;28;20219;-71
2023/06/04 07:40:17;;;;;;;8.07;6.88;;;;;;;17.29;77.65;95255.72;5098047;28;20211;-71
2023/06/04 07:42:49;;;;;;;7.40;6.05;;;;;;;17.32;77.66;95260.50;5080197;28;20199;-72
2023/06/04 07:45:18;;;;;;;6.65;6.07;;;;;;;17.37;77.07;95270.47;5079821;28;20200;-71
2023/06/04 07:47:45;;;;;;;7.78;7.03;;;;;;;17.40;77.79;95272.47;5097991;28;20173;-71
2023/06/04 07:50:13;;;;;;;8.68;7.78;;;;;;;17.44;76.66;95278.88;5097858;28;20258;-71
2023/06/04 07:52:41;;;;;;;7.93;7.13;;;;;;;17.49;76.65;95274.88;5097567;28;20177;-72
2023/06/04 07:55:09;;;;;;;10.23;9.13;;;;;;;17.52;76.89;95272.13;5097732;28;20192;-71
2023/06/04 07:57:38;;;;;;;8.27;7.43;;;;;;;17.58;76.80;95271.75;5079824;28;20547;-71
2023/06/04 08:00:09;;;;;;;8.43;7.63;;;;;;;17.61;76.34;95276.53;5080123;28;20200;-71
2023/06/04 08:02:39;;;;;;;8.85;7.18;;;;;;;17.63;76.51;95274.16;5079620;28;20630;-71
2023/06/04 08:05:10;;;;;;;8.07;7.35;;;;;;;17.66;77.16;95279.75;5079547;28;20196;-71
2023/06/04 08:07:37;;;;;;;10.00;7.88;;;;;;;17.64;76.86;95272.94;5076072;28;20252;-71
2023/06/04 08:10:06;;;;;;;8.02;7.03;;;;;;;17.64;76.62;95279.31;5077291;28;20200;-71
2023/06/04 08:12:34;;;;;;;9.35;8.32;;;;;;;17.62;76.67;95278.13;5077178;28;20197;-71
2023/06/04 08:15:03;;;;;;;9.80;8.02;;;;;;;17.69;77.44;95276.16;5076195;28;20197;-71
2023/06/04 08:17:33;;;;;;;9.27;8.32;;;;;;;17.78;77.01;95281.38;5077454;28;20201;-71
2023/06/04 08:20:01;;;;;;;8.40;7.45;;;;;;;17.85;76.67;95286.19;5076997;28;20193;-71
2023/06/04 08:22:30;;;;;;;9.85;8.85;;;;;;;17.91;76.23;95279.03;5076725;28;20601;-71
2023/06/04 08:24:56;;;;;;;8.88;7.65;;;;;;;17.98;77.02;95279.06;5077010;28;20181;-71
2023/06/04 08:27:24;;;;;;;9.98;8.98;;;;;;;17.99;75.81;95286.22;5076651;28;20277;-71
2023/06/04 08:29:53;;;;;;;12.10;9.05;;;;;;;18.02;75.31;95293.81;5076577;28;20606;-71
2023/06/04 08:32:21;;;;;;;11.43;8.70;;;;;;;18.06;75.95;95288.25;5076907;28;20212;-71
2023/06/04 08:34:50;;;;;;;12.60;10.48;;;;;;;18.07;74.98;95287.03;5075871;28;20193;-71
2023/06/04 08:37:17;;;;;;;12.25;9.88;;;;;;;18.09;75.31;95290.25;5075651;28;20212;-72
2023/06/04 08:39:45;;;;;;;11.93;9.48;;;;;;;18.10;75.17;95287.03;5076640;28;20197;-71
2023/06/04 08:42:19;;;;;;;11.15;9.98;;;;;;;18.14;75.23;95296.22;5075783;28;20296;-71
2023/06/04 08:44:52;;;;;;;10.85;9.77;;;;;;;18.17;75.15;95294.63;5075735;28;20194;-71
2023/06/04 08:47:20;;;;;;;11.05;9.65;;;;;;;18.18;74.70;95296.22;5076205;28;20230;-71
2023/06/04 08:49:53;;;;;;;13.07;10.55;;;;;;;18.20;74.78;95296.63;5075583;28;20228;-71
2023/06/04 08:52:21;;;;;;;11.05;9.75;;;;;;;18.21;75.46;95296.22;5076403;28;20254;-72
2023/06/04 08:54:51;;;;;;;10.55;9.13;;;;;;;18.22;75.01;95300.63;5076260;28;20205;-71
2023/06/04 08:57:18;;;;;;;11.05;9.65;;;;;;;18.22;75.63;95306.19;5075295;28;20255;-71
2023/06/04 08:59:46;;;;;;;11.18;8.68;;;;;;;18.22;75.60;95309.00;5075862;28;20197;-71
2023/06/04 09:02:15;;;;;;;11.25;9.48;;;;;;;18.19;74.85;95307.00;5075097;28;20292;-71
2023/06/04 09:04:43;;;;;;;12.00;9.80;;;;;;;18.15;74.89;95314.56;5075893;28;20173;-71
2023/06/04 09:07:14;;;;;;;11.55;9.93;;;;;;;18.14;75.21;95312.97;5083566;28;20256;-71
2023/06/04 09:09:45;;;;;;;10.98;9.88;;;;;;;18.11;74.85;95313.75;5096357;28;20196;-71
2023/06/04 09:12:17;;;;;;;11.88;9.75;;;;;;;18.11;74.47;95315.75;5078428;28;20204;-71
2023/06/04 09:14:45;;;;;;;10.07;9.07;;;;;;;18.11;75.44;95312.97;5096261;28;20190;-71
2023/06/04 09:17:13;;;;;;;10.90;9.20;;;;;;;18.09;74.87;95315.38;5078235;28;20220;-71
2023/06/04 09:19:41;;;;;;;10.65;9.55;;;;;;;18.09;74.87;95309.78;5096147;28;20185;-71
2023/06/04 09:22:09;;;;;;;11.30;10.00;;;;;;;18.09;74.72;95310.56;5078703;28;20200;-72
2023/06/04 09:24:42;;;;;;;12.77;10.05;;;;;;;18.13;73.20;95313.38;5096118;28;20192;-72
2023/06/04 09:27:14;;;;;;;12.43;9.98;;;;;;;18.18;72.72;95310.19;5078107;28;20557;-71
2023/06/04 09:29:51;;;;;;;10.10;9.18;;;;;;;18.24;71.84;95308.59;5095964;28;20199;-71
2023/06/04 09:32:22;;;;;;;9.30;8.50;;;;;;;18.34;72.79;95305.03;5078377;28;20199;-71
2023/06/04 09:34:50;;;;;;;9.98;8.98;;;;;;;18.44;72.97;95306.22;5078295;28;20201;-71
2023/06/04 09:37:17;;;;;;;10.65;9.32;;;;;;;18.51;71.92;95309.81;5095707;28;20211;-71
2023/06/04 09:39:55;;;;;;;10.88;9.80;;;;;;;18.52;69.89;95307.84;5095425;28;20184;-71
2023/06/04 09:42:23;;;;;;;11.05;9.98;;;;;;;18.58;70.98;95302.63;5095757;28;20201;-71
2023/06/04 09:44:51;;;;;;;11.77;10.68;;;;;;;18.63;70.49;95313.44;5078068;28;20209;-71
2023/06/04 09:47:19;;;;;;;11.80;10.52;;;;;;;18.66;69.60;95307.03;5077568;28;20250;-71
2023/06/04 09:49:52;;;;;;;11.20;10.02;;;;;;;18.76;70.33;95306.25;5078285;28;20196;-71
2023/06/04 09:52:21;;;;;;;10.85;9.70;;;;;;;18.87;70.09;95300.66;5095608;28;20203;-72
2023/06/04 09:54:49;;;;;;;11.15;9.45;;;;;;;18.93;69.80;95310.25;5095143;28;20200;-71
2023/06/04 09:57:19;;;;;;;11.55;9.57;;;;;;;18.98;69.03;95310.63;5095460;28;20252;-71
2023/06/04 09:59:50;;;;;;;10.77;9.68;;;;;;;19.03;68.88;95309.44;5077917;28;20256;-71
2023/06/04 10:02:21;;;;;;;10.15;9.20;;;;;;;19.10;68.55;95301.03;5077770;28;20318;-71
2023/06/04 10:04:53;;;;;;;10.65;9.55;;;;;;;19.22;69.60;95294.22;5095624;28;20184;-71
2023/06/04 10:07:22;;;;;;;10.68;9.68;;;;;;;19.35;70.01;95300.16;5095206;28;20232;-71
2023/06/04 10:09:51;;;;;;;11.02;9.98;;;;;;;19.58;69.72;95288.50;5077708;28;20196;-71
2023/06/04 10:12:26;;;;;;;11.57;10.15;;;;;;;19.87;69.45;95289.19;5077681;28;20225;-71
2023/06/04 10:14:55;;;;;;;10.65;9.55;;;;;;;19.96;67.94;95298.72;5077614;28;20199;-71
2023/06/04 10:17:24;;;;;;;11.35;9.20;;;;;;;20.02;67.40;95287.91;5077504;28;20220;-71
2023/06/04 10:20:12;;;;;;;11.05;9.98;;;;;;;19.94;66.74;95292.75;5077550;28;20196;-71
2023/06/04 10:22:40;;;;;;;11.25;10.15;;;;;;;19.83;66.86;95296.81;5095301;28;20248;-71
2023/06/04 10:25:10;;;;;;;11.07;9.90;;;;;;;19.78;68.09;95295.22;5095098;28;20583;-71
2023/06/04 10:27:40;;;;;;;11.45;9.40;;;;;;;19.78;67.23;95297.22;5077134;28;20234;-71
2023/06/04 10:30:10;;;;;;;9.77;8.77;;;;;;;19.68;65.39;95294.09;5095264;28;20199;-71
2023/06/04 10:32:38;;;;;;;10.18;8.90;;;;;;;19.79;66.64;95293.22;5077508;28;20532;-71
2023/06/04 10:35:07;;;;;;;10.68;9.57;;;;;;;19.91;68.29;95292.78;5077483;28;20199;-71
2023/06/04 10:37:35;;;;;;;8.57;7.78;;;;;;;19.93;67.27;95288.38;5094707;28;20219;-71
2023/06/04 10:40:08;;;;;;;10.32;9.35;;;;;;;20.00;67.92;95283.91;5094827;28;20249;-71
2023/06/04 10:42:42;;;;;;;9.80;8.88;;;;;;;20.02;67.40;95287.13;5095682;28;20195;-71
2023/06/04 10:45:10;;;;;;;9.85;8.85;;;;;;;19.95;66.49;95288.75;5077182;28;20213;-71
2023/06/04 10:47:40;;;;;;;9.88;9.00;;;;;;;19.87;67.42;95283.59;5094335;28;20196;-71
2023/06/04 10:50:10;;;;;;;10.07;9.02;;;;;;;19.79;66.19;95291.25;5077613;28;20369;-71
2023/06/04 10:52:39;;;;;;;9.65;8.65;;;;;;;19.73;65.87;95286.47;5077181;28;20733;-72
2023/06/04 10:55:08;;;;;;;9.73;8.70;;;;;;;19.75;66.31;95292.44;5077058;28;20613;-72
2023/06/04 10:57:38;;;;;;;9.30;8.40;;;;;;;19.81;65.33;95286.03;5077607;28;20265;-72
2023/06/04 11:00:10;;;;;;;8.90;7.93;;;;;;;20.00;67.69;95286.72;5077066;28;20193;-71
2023/06/04 11:02:43;;;;;;;8.93;8.02;;;;;;;20.29;67.88;95290.94;5094678;28;20184;-71
2023/06/04 11:05:11;;;;;;;9.60;8.57;;;;;;;20.33;67.01;95283.28;5094083;28;20507;-71
2023/06/04 11:07:44;;;;;;;8.95;8.15;;;;;;;20.20;65.56;95287.81;5098614;28;20265;-70
2023/06/04 11:10:13;;;;;;;8.68;7.88;;;;;;;20.10;66.49;95281.06;5098706;28;20193;-71
2023/06/04 11:12:45;;;;;;;9.95;8.40;;;;;;;20.02;66.67;95275.91;5098645;28;20184;-70
2023/06/04 11:15:15;;;;;;;9.00;8.20;;;;;;;19.93;66.58;95279.16;5080755;28;20200;-73
2023/06/04 11:17:52;;;;;;;8.55;7.78;;;;;;;19.91;66.63;95281.56;5080781;28;20559;-72
2023/06/04 11:20:21;;;;;;;9.57;8.23;;;;;;;19.90;65.99;95289.19;5080470;28;20188;-71
2023/06/04 11:22:53;;;;;;;8.90;8.00;;;;;;;19.92;67.15;95289.56;5098598;28;20227;-72
2023/06/04 11:25:22;;;;;;;8.70;7.90;;;;;;;19.93;66.57;95291.16;5080227;28;20212;-72
2023/06/04 11:27:50;;;;;;;8.70;7.90;;;;;;;19.92;66.12;95283.16;5098584;28;20189;-71
2023/06/04 11:30:20;;;;;;;9.30;8.45;;;;;;;19.91;66.76;95285.16;5080482;28;20229;-71
2023/06/04 11:32:50;;;;;;;8.98;8.18;;;;;;;19.96;65.80;95283.94;5098337;28;20192;-72
2023/06/04 11:35:18;;;;;;;9.30;8.38;;;;;;;20.10;66.50;95280.25;5080456;28;20220;-72
2023/06/04 11:37:54;;;;;;;9.23;8.43;;;;;;;20.33;65.73;95276.91;5098179;28;20279;-71
2023/06/04 11:40:23;;;;;;;10.10;8.90;;;;;;;20.63;66.53;95271.50;5080757;28;20199;-72